Time;durP1;ratioP1;P1;durP2;ratioP2;P2;SDS_P1;SDS_P2;PMS_P1;PMS_P2;Temp;Humidity;BMP_temperature;BMP_pressure;BME280_temperature;BME280_humidity;BME280_pressure;Samples;Min_cycle;Max_cycle;Signal;HPM_P1;HPM_P2
2021/11/19 00:03:51;;;;;;;;;;;-0.30;99.90;;;;;;8420869;28;19916;-65
2021/11/19 00:07:52;;;;;;;;;;;0.00;99.90;;;;;;8426258;28;19908;-64
2021/11/19 00:11:52;;;;;;;;;;;0.00;99.90;;;;;;8419647;28;19923;-64
2021/11/19 00:15:53;;;;;;;;;;;-0.10;99.90;;;;;;8428746;28;20327;-65
2021/11/19 00:19:53;;;;;;;;;;;0.00;99.90;;;;;;8428263;28;19908;-65
2021/11/19 00:23:54;;;;;;;;;;;-0.10;99.90;;;;;;8428370;28;19912;-65
2021/11/19 00:27:54;;;;;;;;;;;0.00;99.90;;;;;;8428337;28;19931;-65
2021/11/19 00:31:55;;;;;;;;;;;-0.10;99.90;;;;;;8427991;28;20008;-64
2021/11/19 00:35:55;;;;;;;;;;;-0.20;99.90;;;;;;8428103;28;19912;-65
2021/11/19 00:39:56;;;;;;;;;;;-0.20;99.90;;;;;;8394043;28;19919;-65
2021/11/19 00:43:56;;;;;;;;;;;-0.20;99.90;;;;;;8376442;28;19934;-64
2021/11/19 00:47:57;;;;;;;;;;;0.00;99.90;;;;;;8394199;28;19924;-66
2021/11/19 00:51:58;;;;;;;;;;;0.00;99.90;;;;;;8393786;28;19940;-64
2021/11/19 00:55:59;;;;;;;;;;;-0.10;99.90;;;;;;8394090;28;20397;-65
2021/11/19 00:59:59;;;;;;;;;;;-0.10;99.90;;;;;;8396718;28;19916;-64
2021/11/19 01:04:01;;;;;;;;;;;-0.30;99.90;;;;;;8415517;28;19920;-65
2021/11/19 01:08:01;;;;;;;;;;;-0.30;99.90;;;;;;8424803;28;19912;-65
2021/11/19 01:12:03;;;;;;;;;;;-0.10;99.90;;;;;;8417849;28;19916;-64
2021/11/19 01:16:06;;;;;;;;;;;-0.40;99.90;;;;;;8419572;28;19908;-65
2021/11/19 01:20:17;;;;;;;;;;;-0.20;99.90;;;;;;8407429;28;19962;-65
2021/11/19 01:24:18;;;;;;;;;;;-0.30;99.90;;;;;;8426756;28;20013;-65
2021/11/19 01:28:19;;;;;;;;;;;-0.50;99.90;;;;;;8426604;28;19908;-65
2021/11/19 01:32:22;;;;;;;;;;;-0.40;99.90;;;;;;8426365;28;20013;-65
2021/11/19 01:36:22;;;;;;;;;;;-0.50;99.90;;;;;;8407894;28;19912;-64
2021/11/19 01:40:24;;;;;;;;;;;-0.40;99.90;;;;;;8415514;28;20439;-65
2021/11/19 01:44:30;;;;;;;;;;;-0.30;99.90;;;;;;8426233;28;19912;-64
2021/11/19 01:48:39;;;;;;;;;;;-0.40;99.90;;;;;;8426091;28;19920;-65
2021/11/19 01:52:42;;;;;;;;;;;-0.40;99.90;;;;;;8408135;28;19908;-65
2021/11/19 01:56:46;;;;;;;;;;;-0.40;99.90;;;;;;8423338;28;20294;-65
2021/11/19 02:00:50;;;;;;;;;;;-0.60;99.90;;;;;;8425649;28;20358;-64
2021/11/19 02:04:53;;;;;;;;;;;-0.50;99.90;;;;;;8425968;28;19912;-64
2021/11/19 02:08:54;;;;;;;;;;;-0.80;99.90;;;;;;8399631;28;20369;-65
2021/11/19 02:13:13;;;;;;;;;;;-1.00;99.90;;;;;;8418887;28;19974;-65
2021/11/19 02:17:14;;;;;;;;;;;-0.70;99.90;;;;;;8411029;28;20400;-64
2021/11/19 02:21:20;;;;;;;;;;;-0.30;99.90;;;;;;8432365;28;19908;-65
2021/11/19 02:25:26;;;;;;;;;;;-0.20;99.90;;;;;;8432073;28;19922;-65
2021/11/19 02:29:28;;;;;;;;;;;-0.30;99.90;;;;;;8431941;28;19951;-65
2021/11/19 02:33:29;;;;;;;;;;;-0.30;99.90;;;;;;8414272;28;19916;-65
2021/11/19 02:37:37;;;;;;;;;;;-0.30;99.90;;;;;;8429638;28;19908;-65
2021/11/19 02:41:46;;;;;;;;;;;-0.10;99.90;;;;;;8405015;28;19908;-64
2021/11/19 02:45:47;;;;;;;;;;;0.10;99.90;;;;;;8413415;28;19912;-64
2021/11/19 02:49:48;;;;;;;;;;;0.30;99.90;;;;;;8431156;28;20396;-65
2021/11/19 02:53:49;;;;;;;;;;;0.30;99.90;;;;;;8413185;28;19908;-65
2021/11/19 02:57:50;;;;;;;;;;;0.30;99.90;;;;;;8426717;28;19930;-65
2021/11/19 03:01:59;;;;;;;;;;;0.30;99.90;;;;;;8412593;28;19908;-66
2021/11/19 03:06:00;;;;;;;;;;;0.30;99.90;;;;;;8430905;28;19912;-64
2021/11/19 03:10:04;;;;;;;;;;;0.40;99.90;;;;;;8401513;28;19983;-65
2021/11/19 03:14:05;;;;;;;;;;;0.30;99.90;;;;;;8429468;28;19908;-65
2021/11/19 03:18:06;;;;;;;;;;;0.40;99.90;;;;;;8430298;28;19960;-65
2021/11/19 03:22:08;;;;;;;;;;;0.50;99.90;;;;;;8429882;28;19918;-65
2021/11/19 03:26:09;;;;;;;;;;;0.70;99.90;;;;;;8430388;28;19958;-65
2021/11/19 03:30:11;;;;;;;;;;;0.90;99.90;;;;;;8430008;28;19915;-65
2021/11/19 03:34:11;;;;;;;;;;;0.70;99.90;;;;;;8430068;28;19912;-64
2021/11/19 03:38:12;;;;;;;;;;;0.60;99.90;;;;;;8409594;28;20033;-64
2021/11/19 03:42:14;;;;;;;;;;;0.80;99.90;;;;;;8421275;28;19916;-65
2021/11/19 03:46:16;;;;;;;;;;;0.90;99.90;;;;;;8411394;28;19912;-65
2021/11/19 03:50:19;;;;;;;;;;;0.80;99.90;;;;;;8429339;28;19981;-65
2021/11/19 03:54:21;;;;;;;;;;;0.80;99.90;;;;;;8429369;28;19950;-65
2021/11/19 03:58:23;;;;;;;;;;;0.70;99.90;;;;;;8429019;28;20349;-63
2021/11/19 04:02:28;;;;;;;;;;;0.70;99.90;;;;;;8407151;28;19915;-64
2021/11/19 04:06:28;;;;;;;;;;;0.70;99.90;;;;;;8428894;28;19912;-64
2021/11/19 04:10:29;;;;;;;;;;;0.60;99.90;;;;;;8408751;28;20400;-65
2021/11/19 04:14:30;;;;;;;;;;;0.80;99.90;;;;;;8377141;28;19908;-65
2021/11/19 04:18:30;;;;;;;;;;;0.80;99.90;;;;;;8415804;28;19943;-64
2021/11/19 04:22:31;;;;;;;;;;;0.80;99.90;;;;;;8428036;28;20316;-65
2021/11/19 04:26:34;;;;;;;;;;;0.70;99.90;;;;;;8428402;28;20415;-65
2021/11/19 04:30:37;;;;;;;;;;;0.80;99.90;;;;;;8406940;28;19913;-65
2021/11/19 04:34:38;;;;;;;;;;;1.00;99.90;;;;;;8376621;28;19912;-64
2021/11/19 04:38:39;;;;;;;;;;;1.00;99.90;;;;;;8395444;28;19909;-65
2021/11/19 04:42:39;;;;;;;;;;;1.00;99.90;;;;;;8423004;28;19912;-64
2021/11/19 04:46:41;;;;;;;;;;;1.00;99.90;;;;;;8444183;22;19916;-65
2021/11/19 04:50:46;;;;;;;;;;;0.90;99.90;;;;;;8424342;28;20009;-65
2021/11/19 04:54:47;;;;;;;;;;;1.00;99.90;;;;;;8427269;28;19915;-66
2021/11/19 04:58:48;;;;;;;;;;;0.90;99.90;;;;;;8427642;28;19966;-66
2021/11/19 05:02:49;;;;;;;;;;;0.70;99.90;;;;;;8385003;28;19917;-65
2021/11/19 05:06:49;;;;;;;;;;;0.80;99.90;;;;;;8425661;28;20034;-66
2021/11/19 05:10:52;;;;;;;;;;;0.70;99.90;;;;;;8411748;28;19951;-66
2021/11/19 05:14:52;;;;;;;;;;;0.60;99.90;;;;;;8392488;28;19916;-66
2021/11/19 05:18:53;;;;;;;;;;;0.70;99.90;;;;;;8393986;28;19909;-66
2021/11/19 05:22:53;;;;;;;;;;;0.70;99.90;;;;;;8393166;28;20383;-65
2021/11/19 05:26:54;;;;;;;;;;;0.70;99.90;;;;;;8400805;28;19942;-66
2021/11/19 05:30:55;;;;;;;;;;;0.70;99.90;;;;;;8380286;28;19943;-66
2021/11/19 05:34:55;;;;;;;;;;;0.90;99.90;;;;;;8389209;28;19908;-65
2021/11/19 05:38:55;;;;;;;;;;;0.60;99.90;;;;;;8412944;28;19966;-66
2021/11/19 05:42:56;;;;;;;;;;;0.50;99.90;;;;;;8416709;28;19920;-66
2021/11/19 05:46:57;;;;;;;;;;;0.50;99.90;;;;;;8421553;28;19922;-65
2021/11/19 05:50:59;;;;;;;;;;;0.50;99.90;;;;;;8426484;28;19969;-65
2021/11/19 05:55:00;;;;;;;;;;;0.40;99.90;;;;;;8395747;28;19912;-66
2021/11/19 05:59:01;;;;;;;;;;;0.50;99.90;;;;;;8413397;28;19912;-65
2021/11/19 06:03:02;;;;;;;;;;;0.60;99.90;;;;;;8411889;28;19916;-65
2021/11/19 06:07:02;;;;;;;;;;;0.60;99.90;;;;;;8413828;28;20320;-65
2021/11/19 06:11:06;;;;;;;;;;;0.60;99.90;;;;;;8402362;28;20029;-66
2021/11/19 06:15:12;;;;;;;;;;;0.50;99.90;;;;;;8431734;28;19934;-66
2021/11/19 06:19:14;;;;;;;;;;;0.50;99.90;;;;;;8420367;28;19927;-66
2021/11/19 06:23:19;;;;;;;;;;;0.60;99.90;;;;;;8417041;28;19921;-69
2021/11/19 06:27:23;;;;;;;;;;;0.60;99.90;;;;;;8380370;28;19974;-69
2021/11/19 06:31:24;;;;;;;;;;;0.70;99.90;;;;;;8379852;28;19909;-69
2021/11/19 06:35:24;;;;;;;;;;;0.80;99.90;;;;;;8404918;28;19912;-69
2021/11/19 06:39:25;;;;;;;;;;;0.70;99.90;;;;;;8394395;28;20370;-64
2021/11/19 06:43:26;;;;;;;;;;;0.80;99.90;;;;;;8400626;28;19920;-64
2021/11/19 06:47:26;;;;;;;;;;;0.90;99.90;;;;;;8401636;28;19916;-63
2021/11/19 06:51:27;;;;;;;;;;;1.10;99.90;;;;;;8422979;28;19912;-64
2021/11/19 06:55:27;;;;;;;;;;;1.10;99.90;;;;;;8403653;28;19916;-65
2021/11/19 06:59:28;;;;;;;;;;;0.90;99.90;;;;;;8412508;28;19999;-64
2021/11/19 07:03:29;;;;;;;;;;;0.80;99.90;;;;;;8414441;28;19917;-65
2021/11/19 07:07:29;;;;;;;;;;;1.10;99.90;;;;;;8419541;28;20012;-65
2021/11/19 07:11:29;;;;;;;;;;;1.00;99.90;;;;;;8407602;28;20339;-65
2021/11/19 07:15:30;;;;;;;;;;;1.10;99.90;;;;;;8395844;28;20271;-64
2021/11/19 07:19:31;;;;;;;;;;;1.20;99.90;;;;;;8414348;28;19919;-65
2021/11/19 07:23:32;;;;;;;;;;;1.40;99.90;;;;;;8395288;28;19924;-64
2021/11/19 07:27:32;;;;;;;;;;;1.30;99.90;;;;;;8426753;28;19973;-65
2021/11/19 07:31:33;;;;;;;;;;;1.40;99.90;;;;;;8402429;28;20298;-65
2021/11/19 07:35:34;;;;;;;;;;;1.40;99.90;;;;;;8415095;28;19918;-65
2021/11/19 07:39:35;;;;;;;;;;;1.40;99.90;;;;;;8413186;28;19913;-66
2021/11/19 07:43:40;;;;;;;;;;;1.40;99.90;;;;;;8417316;28;19924;-64
2021/11/19 07:47:40;;;;;;;;;;;1.30;99.90;;;;;;8401694;28;20305;-64
2021/11/19 07:51:44;;;;;;;;;;;1.30;99.90;;;;;;8384259;28;19919;-64
2021/11/19 07:55:45;;;;;;;;;;;1.60;99.90;;;;;;8397423;28;19916;-65
2021/11/19 07:59:46;;;;;;;;;;;1.70;99.90;;;;;;8408268;28;19966;-65
2021/11/19 08:03:47;;;;;;;;;;;1.80;99.90;;;;;;8409021;28;19960;-64
2021/11/19 08:07:47;;;;;;;;;;;1.90;99.90;;;;;;8406688;28;20282;-65
2021/11/19 08:11:48;;;;;;;;;;;2.10;99.90;;;;;;8401204;28;20197;-64
2021/11/19 08:15:49;;;;;;;;;;;2.40;99.90;;;;;;8426704;28;19934;-64
2021/11/19 08:19:50;;;;;;;;;;;2.70;99.90;;;;;;8407879;28;20304;-64
2021/11/19 08:23:58;;;;;;;;;;;2.90;99.90;;;;;;8408580;28;20242;-64
2021/11/19 08:27:59;;;;;;;;;;;3.30;99.90;;;;;;8386362;28;19913;-65
2021/11/19 08:32:01;;;;;;;;;;;3.50;99.90;;;;;;8409072;28;19927;-64
2021/11/19 08:36:02;;;;;;;;;;;3.90;99.90;;;;;;8397936;28;20005;-64
2021/11/19 08:40:05;;;;;;;;;;;4.10;99.90;;;;;;8397690;28;19912;-65
2021/11/19 08:44:06;;;;;;;;;;;4.40;99.90;;;;;;8405956;28;20344;-66
2021/11/19 08:48:08;;;;;;;;;;;4.70;99.90;;;;;;8409204;28;19916;-65
2021/11/19 08:52:11;;;;;;;;;;;5.00;99.90;;;;;;8414223;28;21068;-64
2021/11/19 08:56:11;;;;;;;;;;;5.00;99.90;;;;;;8422676;28;19969;-65
2021/11/19 09:00:15;;;;;;;;;;;5.30;99.90;;;;;;8405331;28;19982;-66
2021/11/19 09:04:16;;;;;;;;;;;5.40;99.90;;;;;;8404446;28;19973;-65
2021/11/19 09:08:18;;;;;;;;;;;5.70;99.90;;;;;;8401826;28;20297;-64
2021/11/19 09:12:18;;;;;;;;;;;5.80;99.90;;;;;;8421826;28;20372;-65
2021/11/19 09:16:23;;;;;;;;;;;5.60;99.90;;;;;;8423112;28;19938;-65
2021/11/19 09:20:30;;;;;;;;;;;5.70;99.90;;;;;;8391707;28;19927;-65
2021/11/19 09:24:32;;;;;;;;;;;6.00;99.90;;;;;;8415728;28;19920;-65
2021/11/19 09:28:35;;;;;;;;;;;6.00;99.90;;;;;;8407482;28;19920;-64
2021/11/19 09:32:35;;;;;;;;;;;5.80;99.90;;;;;;8421779;28;19917;-65
2021/11/19 09:36:37;;;;;;;;;;;5.60;99.90;;;;;;8425568;28;19954;-63
2021/11/19 09:40:39;;;;;;;;;;;5.60;99.90;;;;;;8413711;28;19994;-64
2021/11/19 09:45:12;;;;;;;;;;;5.70;99.90;;;;;;8412883;28;19955;-65
2021/11/19 09:49:31;;;;;;;;;;;5.40;99.90;;;;;;8375337;28;19916;-65
2021/11/19 09:53:50;;;;;;;;;;;5.20;99.90;;;;;;8398917;28;19959;-64
2021/11/19 09:58:09;;;;;;;;;;;5.40;99.90;;;;;;8421747;28;20286;-66
2021/11/19 10:02:21;;;;;;;;;;;5.40;99.90;;;;;;8423020;28;19912;-65
2021/11/19 10:06:27;;;;;;;;;;;5.00;99.90;;;;;;8425781;28;19919;-65
2021/11/19 10:10:32;;;;;;;;;;;4.90;99.90;;;;;;8413774;28;19912;-66
2021/11/19 10:14:42;;;;;;;;;;;4.90;99.90;;;;;;8396844;28;19962;-65
2021/11/19 10:18:42;;;;;;;;;;;5.20;99.90;;;;;;8379952;28;19963;-65
2021/11/19 10:23:01;;;;;;;;;;;5.90;99.90;;;;;;8391780;28;19935;-65
2021/11/19 10:27:02;;;;;;;;;;;5.80;99.90;;;;;;8379051;28;20317;-64
2021/11/19 10:31:03;;;;;;;;;;;6.10;99.90;;;;;;8398783;28;19913;-64
2021/11/19 10:35:21;;;;;;;;;;;6.30;99.90;;;;;;8409323;28;19920;-65
2021/11/19 10:39:24;;;;;;;;;;;6.40;99.90;;;;;;8417277;28;19912;-64
2021/11/19 10:43:39;;;;;;;;;;;6.20;99.90;;;;;;8416283;28;20393;-65
2021/11/19 10:47:49;;;;;;;;;;;6.40;99.90;;;;;;8446360;22;20015;-65
2021/11/19 10:51:49;;;;;;;;;;;6.40;99.90;;;;;;8418219;28;19912;-65
2021/11/19 10:55:56;;;;;;;;;;;6.50;99.90;;;;;;8428809;28;19964;-66
2021/11/19 11:00:11;;;;;;;;;;;7.30;99.90;;;;;;8429655;28;19908;-66
2021/11/19 11:04:29;;;;;;;;;;;8.90;99.90;;;;;;8409778;28;20398;-66
2021/11/19 11:08:31;;;;;;;;;;;10.70;99.90;;;;;;8413942;28;19912;-66
2021/11/19 11:12:44;;;;;;;;;;;11.70;99.90;;;;;;8424754;28;19916;-66
2021/11/19 11:16:45;;;;;;;;;;;12.20;99.90;;;;;;8404655;28;19913;-66
2021/11/19 11:20:52;;;;;;;;;;;12.80;99.90;;;;;;8422736;28;19916;-66
2021/11/19 11:25:02;;;;;;;;;;;11.80;99.90;;;;;;8410472;28;19916;-66
2021/11/19 11:29:09;;;;;;;;;;;11.00;99.90;;;;;;8413939;28;19916;-66
2021/11/19 11:33:29;;;;;;;;;;;10.30;99.90;;;;;;8419967;28;19920;-67
2021/11/19 11:37:39;;;;;;;;;;;9.60;99.90;;;;;;8392376;28;20279;-66
2021/11/19 11:41:48;;;;;;;;;;;9.70;99.90;;;;;;8388780;28;19922;-66
2021/11/19 11:46:00;;;;;;;;;;;11.70;99.90;;;;;;8395209;28;19985;-66
2021/11/19 11:50:18;;;;;;;;;;;11.40;99.90;;;;;;8395144;28;20305;-66
2021/11/19 11:54:25;;;;;;;;;;;11.30;99.90;;;;;;8400091;28;19920;-65
2021/11/19 11:58:44;;;;;;;;;;;13.30;99.90;;;;;;8407911;28;20058;-66
2021/11/19 12:02:59;;;;;;;;;;;15.40;99.90;;;;;;8389997;28;20378;-66
2021/11/19 12:07:00;;;;;;;;;;;16.50;99.90;;;;;;8393060;28;19947;-66
2021/11/19 12:11:09;;;;;;;;;;;17.00;99.90;;;;;;8387530;28;20291;-66
2021/11/19 12:15:25;;;;;;;;;;;17.40;99.90;;;;;;8380696;28;19916;-67
2021/11/19 12:19:35;;;;;;;;;;;19.10;99.90;;;;;;8379087;28;20275;-67
2021/11/19 12:23:43;;;;;;;;;;;19.10;98.00;;;;;;8399484;28;19969;-67
2021/11/19 12:27:52;;;;;;;;;;;18.40;97.70;;;;;;8379471;28;19967;-66
2021/11/19 12:31:53;;;;;;;;;;;17.50;99.30;;;;;;8393007;28;19913;-66
2021/11/19 12:36:02;;;;;;;;;;;17.20;99.40;;;;;;8391093;28;20604;-66
2021/11/19 12:40:15;;;;;;;;;;;15.70;99.90;;;;;;8399432;28;19923;-66
2021/11/19 12:44:30;;;;;;;;;;;14.30;99.90;;;;;;8393084;28;19921;-66
2021/11/19 12:48:50;;;;;;;;;;;13.90;99.90;;;;;;8373020;28;19917;-66
2021/11/19 12:53:01;;;;;;;;;;;13.30;99.90;;;;;;8389881;28;20521;-66
2021/11/19 12:57:28;;;;;;;;;;;12.60;99.90;;;;;;8370893;28;21330;-66
2021/11/19 13:01:31;;;;;;;;;;;12.60;99.90;;;;;;8392784;28;19998;-66
2021/11/19 13:05:47;;;;;;;;;;;13.40;99.90;;;;;;8395830;28;20412;-66
2021/11/19 13:09:49;;;;;;;;;;;13.30;99.90;;;;;;8376427;28;20218;-66
2021/11/19 13:14:10;;;;;;;;;;;12.10;99.90;;;;;;8399442;28;19912;-66
2021/11/19 13:18:16;;;;;;;;;;;11.50;99.90;;;;;;8413464;28;20205;-66
2021/11/19 13:22:20;;;;;;;;;;;11.30;99.90;;;;;;8388598;28;19962;-66
2021/11/19 13:26:20;;;;;;;;;;;11.70;99.90;;;;;;8392942;28;19923;-66
2021/11/19 13:30:33;;;;;;;;;;;12.10;99.90;;;;;;8392175;28;19912;-66
2021/11/19 13:34:44;;;;;;;;;;;11.80;99.90;;;;;;8374425;28;19913;-66
2021/11/19 13:39:05;;;;;;;;;;;12.00;99.90;;;;;;8382654;28;19917;-66
2021/11/19 13:43:09;;;;;;;;;;;11.60;99.90;;;;;;8393735;28;19916;-66
2021/11/19 13:47:28;;;;;;;;;;;10.60;99.90;;;;;;8374027;28;19916;-66
2021/11/19 13:51:38;;;;;;;;;;;10.00;99.90;;;;;;8401621;28;19917;-66
2021/11/19 13:55:41;;;;;;;;;;;10.50;99.90;;;;;;8391169;28;20268;-66
2021/11/19 13:59:42;;;;;;;;;;;10.70;99.90;;;;;;8383487;28;20297;-66
2021/11/19 14:03:42;;;;;;;;;;;10.50;99.90;;;;;;8374104;28;19920;-66
2021/11/19 14:07:53;;;;;;;;;;;10.30;99.90;;;;;;8391767;28;19913;-66
2021/11/19 14:11:58;;;;;;;;;;;10.00;99.90;;;;;;8391563;28;19916;-66
2021/11/19 14:16:10;;;;;;;;;;;10.20;99.90;;;;;;8397421;28;20386;-66
2021/11/19 14:25:06;;;;;;;;;;;9.90;99.90;;;;;;8396749;28;20332;-66
2021/11/19 14:29:14;;;;;;;;;;;9.70;99.90;;;;;;8394900;28;19913;-66
2021/11/19 14:33:18;;;;;;;;;;;9.50;99.90;;;;;;8394495;28;20259;-66
2021/11/19 14:37:28;;;;;;;;;;;9.50;99.90;;;;;;8393397;28;19966;-66
2021/11/19 14:41:38;;;;;;;;;;;9.50;99.90;;;;;;8394546;28;19954;-66
2021/11/19 14:45:45;;;;;;;;;;;9.30;99.90;;;;;;8390895;28;19916;-66
2021/11/19 14:49:52;;;;;;;;;;;9.10;99.90;;;;;;8381502;28;20019;-66
2021/11/19 14:53:55;;;;;;;;;;;9.00;99.90;;;;;;8410162;28;19919;-66
2021/11/19 14:57:55;;;;;;;;;;;8.70;99.90;;;;;;8407458;28;19912;-66
2021/11/19 15:02:02;;;;;;;;;;;8.60;99.90;;;;;;8422982;28;19935;-66
2021/11/19 15:06:17;;;;;;;;;;;8.50;99.90;;;;;;8413112;28;19920;-66
2021/11/19 15:10:27;;;;;;;;;;;8.30;99.90;;;;;;8377045;28;20312;-66
2021/11/19 15:14:35;;;;;;;;;;;8.10;99.90;;;;;;8378102;28;19913;-66
2021/11/19 15:18:43;;;;;;;;;;;8.00;99.90;;;;;;8397589;28;19927;-66
2021/11/19 15:22:50;;;;;;;;;;;7.80;99.90;;;;;;8400450;28;19958;-66
2021/11/19 15:26:52;;;;;;;;;;;7.70;99.90;;;;;;8395088;28;19912;-66
2021/11/19 15:30:57;;;;;;;;;;;7.30;99.90;;;;;;8396311;28;19951;-66
2021/11/19 15:35:09;;;;;;;;;;;7.10;99.90;;;;;;8395837;28;19913;-66
2021/11/19 15:39:10;;;;;;;;;;;6.80;99.90;;;;;;8392892;28;19985;-66
2021/11/19 15:43:12;;;;;;;;;;;6.80;99.90;;;;;;8394172;28;19912;-66
2021/11/19 15:47:13;;;;;;;;;;;6.50;99.90;;;;;;8392153;28;19919;-66
2021/11/19 15:51:14;;;;;;;;;;;6.50;99.90;;;;;;8395152;28;19908;-66
2021/11/19 15:55:20;;;;;;;;;;;6.40;99.90;;;;;;8377359;28;20003;-66
2021/11/19 15:59:25;;;;;;;;;;;6.10;99.90;;;;;;8377368;28;20371;-66
2021/11/19 16:03:38;;;;;;;;;;;6.00;99.90;;;;;;8395417;28;20029;-66
2021/11/19 16:07:42;;;;;;;;;;;5.70;99.90;;;;;;8393190;28;19909;-66
2021/11/19 16:11:45;;;;;;;;;;;5.50;99.90;;;;;;8389573;28;20417;-66
2021/11/19 16:15:53;;;;;;;;;;;5.30;99.90;;;;;;8395401;28;20339;-66
2021/11/19 16:19:54;;;;;;;;;;;5.20;99.90;;;;;;8391872;28;19916;-66
2021/11/19 16:23:55;;;;;;;;;;;5.10;99.90;;;;;;8388593;28;19928;-66
2021/11/19 16:27:55;;;;;;;;;;;4.90;99.90;;;;;;8361878;28;19954;-66
2021/11/19 16:31:56;;;;;;;;;;;4.80;99.90;;;;;;8387178;28;19999;-66
2021/11/19 16:35:57;;;;;;;;;;;4.70;99.90;;;;;;8371432;28;19912;-66
2021/11/19 16:39:58;;;;;;;;;;;4.60;99.90;;;;;;8365338;28;19977;-66
2021/11/19 16:43:59;;;;;;;;;;;4.80;99.90;;;;;;8392492;28;20019;-66
2021/11/19 16:48:01;;;;;;;;;;;4.70;99.90;;;;;;8419706;22;20288;-64
2021/11/19 16:52:04;;;;;;;;;;;4.80;99.90;;;;;;8391394;28;20314;-64
2021/11/19 16:56:06;;;;;;;;;;;4.40;99.90;;;;;;8611348;23;20377;-65
2021/11/19 17:00:19;;;;;;;;;;;4.30;99.90;;;;;;8386532;28;19954;-65
2021/11/19 17:04:21;;;;;;;;;;;4.00;99.90;;;;;;8368124;28;19920;-64
2021/11/19 17:08:25;;;;;;;;;;;4.00;99.90;;;;;;8388801;28;19916;-64
2021/11/19 17:12:25;;;;;;;;;;;3.80;99.90;;;;;;8387969;28;20306;-64
2021/11/19 17:16:26;;;;;;;;;;;3.70;99.90;;;;;;8388959;28;20000;-65
2021/11/19 17:20:27;;;;;;;;;;;3.70;99.90;;;;;;8371986;28;19919;-64
2021/11/19 17:24:28;;;;;;;;;;;3.80;99.90;;;;;;8373133;28;19920;-64
2021/11/19 17:28:30;;;;;;;;;;;3.90;99.90;;;;;;8371199;28;20445;-64
2021/11/19 17:32:30;;;;;;;;;;;3.80;99.90;;;;;;8389928;28;19919;-64
2021/11/19 17:36:31;;;;;;;;;;;3.60;99.90;;;;;;8389768;28;20334;-64
2021/11/19 17:40:31;;;;;;;;;;;3.60;99.90;;;;;;8359030;28;20394;-65
2021/11/19 17:44:32;;;;;;;;;;;3.60;99.90;;;;;;8386126;28;20019;-66
2021/11/19 17:48:34;;;;;;;;;;;3.40;99.90;;;;;;8399927;28;19955;-65
2021/11/19 17:52:37;;;;;;;;;;;3.30;99.90;;;;;;8398252;28;20362;-65
2021/11/19 17:56:39;;;;;;;;;;;3.20;99.90;;;;;;8402305;28;19995;-64
2021/11/19 18:00:43;;;;;;;;;;;3.00;99.90;;;;;;8401935;28;20552;-65
2021/11/19 18:04:44;;;;;;;;;;;3.00;99.90;;;;;;8402897;28;20224;-64
2021/11/19 18:08:45;;;;;;;;;;;3.20;99.90;;;;;;8394344;28;19913;-65
2021/11/19 18:12:46;;;;;;;;;;;3.00;99.90;;;;;;8403025;28;19962;-64
2021/11/19 18:16:48;;;;;;;;;;;2.80;99.90;;;;;;8393906;28;20003;-65
2021/11/19 18:21:02;;;;;;;;;;;2.70;99.90;;;;;;8376233;28;19920;-64
2021/11/19 18:25:05;;;;;;;;;;;2.60;99.90;;;;;;8399516;28;20344;-64
2021/11/19 18:29:05;;;;;;;;;;;2.70;99.90;;;;;;8388811;28;20027;-64
2021/11/19 18:33:07;;;;;;;;;;;2.70;99.90;;;;;;8391560;28;19916;-64
2021/11/19 18:37:09;;;;;;;;;;;2.50;99.90;;;;;;8370817;28;19916;-65
2021/11/19 18:41:17;;;;;;;;;;;2.40;99.90;;;;;;8390022;28;20318;-64
2021/11/19 18:45:18;;;;;;;;;;;2.80;99.90;;;;;;8391878;28;19942;-65
2021/11/19 18:49:19;;;;;;;;;;;2.70;99.90;;;;;;8392905;28;20267;-65
2021/11/19 18:53:22;;;;;;;;;;;2.50;99.90;;;;;;8363867;28;20059;-64
2021/11/19 18:57:24;;;;;;;;;;;2.50;99.90;;;;;;8357813;28;19989;-65
2021/11/19 19:01:27;;;;;;;;;;;2.30;99.90;;;;;;8352411;28;19982;-64
2021/11/19 19:05:31;;;;;;;;;;;2.10;99.90;;;;;;8357871;28;19927;-65
2021/11/19 19:09:32;;;;;;;;;;;2.30;99.90;;;;;;8358157;28;19920;-64
2021/11/19 19:13:32;;;;;;;;;;;2.30;99.90;;;;;;8377687;28;19948;-64
2021/11/19 19:17:37;;;;;;;;;;;2.20;99.90;;;;;;8377009;28;19917;-65
2021/11/19 19:21:37;;;;;;;;;;;2.10;99.90;;;;;;8370987;28;19966;-65
2021/11/19 19:25:40;;;;;;;;;;;1.90;99.90;;;;;;8357945;28;19917;-64
2021/11/19 19:29:41;;;;;;;;;;;1.90;99.90;;;;;;8379780;28;19920;-65
2021/11/19 19:33:44;;;;;;;;;;;1.90;99.90;;;;;;8361210;28;19912;-65
2021/11/19 19:37:49;;;;;;;;;;;1.70;99.90;;;;;;8380454;28;19912;-65
2021/11/19 19:41:52;;;;;;;;;;;1.70;99.90;;;;;;8394189;28;19919;-65
2021/11/19 19:45:53;;;;;;;;;;;1.50;99.90;;;;;;8356175;28;19916;-65
2021/11/19 19:49:53;;;;;;;;;;;1.50;99.90;;;;;;8377537;28;19914;-65
2021/11/19 19:53:55;;;;;;;;;;;1.40;99.90;;;;;;8368473;28;19921;-65
2021/11/19 19:57:57;;;;;;;;;;;1.40;99.90;;;;;;8362987;28;19909;-65
2021/11/19 20:01:58;;;;;;;;;;;1.30;99.90;;;;;;8362175;28;19932;-65
2021/11/19 20:05:58;;;;;;;;;;;1.40;99.90;;;;;;8361209;28;19913;-65
2021/11/19 20:09:59;;;;;;;;;;;1.40;99.90;;;;;;8376969;28;20290;-65
2021/11/19 20:14:02;;;;;;;;;;;1.20;99.90;;;;;;8377576;28;20381;-65
2021/11/19 20:18:04;;;;;;;;;;;1.30;99.90;;;;;;8377364;28;19908;-66
2021/11/19 20:22:06;;;;;;;;;;;1.30;99.90;;;;;;8394904;28;20374;-65
2021/11/19 20:26:12;;;;;;;;;;;1.50;99.90;;;;;;8395214;28;19912;-65
2021/11/19 20:30:15;;;;;;;;;;;1.40;99.90;;;;;;8394623;28;19920;-66
2021/11/19 20:34:17;;;;;;;;;;;1.00;99.90;;;;;;8395120;28;19920;-65
2021/11/19 20:38:18;;;;;;;;;;;1.40;99.90;;;;;;8385715;28;19909;-65
2021/11/19 20:42:19;;;;;;;;;;;1.50;99.90;;;;;;8394287;28;19995;-65
2021/11/19 20:46:20;;;;;;;;;;;1.50;99.90;;;;;;8394578;28;19913;-65
2021/11/19 20:50:22;;;;;;;;;;;1.50;99.90;;;;;;8376362;28;19919;-65
2021/11/19 20:54:24;;;;;;;;;;;1.30;99.90;;;;;;8376409;28;19923;-65
2021/11/19 20:58:25;;;;;;;;;;;1.20;99.90;;;;;;8389812;28;19912;-65
2021/11/19 21:02:27;;;;;;;;;;;1.20;99.90;;;;;;8393524;28;19912;-65
2021/11/19 21:06:28;;;;;;;;;;;1.10;99.90;;;;;;8375990;28;19919;-65
2021/11/19 21:10:29;;;;;;;;;;;1.20;99.90;;;;;;8373826;28;19909;-65
2021/11/19 21:14:34;;;;;;;;;;;1.00;99.90;;;;;;8374772;28;19915;-65
2021/11/19 21:18:35;;;;;;;;;;;0.90;99.90;;;;;;8394193;28;19908;-65
2021/11/19 21:22:36;;;;;;;;;;;0.90;99.90;;;;;;8393047;28;19909;-65
2021/11/19 21:26:40;;;;;;;;;;;0.80;99.90;;;;;;8394346;28;19959;-65
2021/11/19 21:30:42;;;;;;;;;;;0.80;99.90;;;;;;8393486;28;19912;-65
2021/11/19 21:34:43;;;;;;;;;;;0.70;99.90;;;;;;8393616;28;19909;-65
2021/11/19 21:38:44;;;;;;;;;;;0.70;99.90;;;;;;8388179;28;19913;-66
2021/11/19 21:42:46;;;;;;;;;;;1.00;99.90;;;;;;8371741;28;20407;-65
2021/11/19 21:46:46;;;;;;;;;;;1.00;99.90;;;;;;8393140;28;19955;-65
2021/11/19 21:50:49;;;;;;;;;;;1.10;99.90;;;;;;8371563;28;19920;-65
2021/11/19 21:54:56;;;;;;;;;;;1.30;99.90;;;;;;8392940;28;19932;-65
2021/11/19 21:58:56;;;;;;;;;;;1.20;99.90;;;;;;8392738;28;20003;-65
2021/11/19 22:02:57;;;;;;;;;;;1.10;99.90;;;;;;8392488;28;20294;-65
2021/11/19 22:06:59;;;;;;;;;;;1.00;99.90;;;;;;8390091;28;19958;-65
2021/11/19 22:11:02;;;;;;;;;;;1.20;99.90;;;;;;8384044;28;19992;-65
2021/11/19 22:15:03;;;;;;;;;;;1.00;99.90;;;;;;8392728;28;19961;-65
2021/11/19 22:19:04;;;;;;;;;;;1.10;99.90;;;;;;8374853;28;19909;-65
2021/11/19 22:23:05;;;;;;;;;;;1.20;99.90;;;;;;8374285;28;20259;-65
2021/11/19 22:27:07;;;;;;;;;;;1.30;99.90;;;;;;8392426;28;19908;-65
2021/11/19 22:31:09;;;;;;;;;;;1.40;99.90;;;;;;8392371;28;19917;-65
2021/11/19 22:35:10;;;;;;;;;;;1.40;99.90;;;;;;8397509;28;19915;-65
2021/11/19 22:39:17;;;;;;;;;;;1.40;99.90;;;;;;8389615;28;19954;-65
2021/11/19 22:43:19;;;;;;;;;;;1.60;99.90;;;;;;8364987;28;19909;-65
2021/11/19 22:47:21;;;;;;;;;;;1.50;99.90;;;;;;8365194;28;19915;-65
2021/11/19 22:51:24;;;;;;;;;;;1.40;99.90;;;;;;8364981;28;19915;-65
2021/11/19 22:55:25;;;;;;;;;;;1.70;99.90;;;;;;8402938;23;19928;-66
2021/11/19 22:59:26;;;;;;;;;;;1.60;99.90;;;;;;8427706;28;20433;-66
2021/11/19 23:03:27;;;;;;;;;;;1.80;99.90;;;;;;8430997;28;19927;-66
2021/11/19 23:07:28;;;;;;;;;;;1.80;99.90;;;;;;8428411;28;19909;-66
2021/11/19 23:11:31;;;;;;;;;;;1.90;99.90;;;;;;8430595;28;19915;-66
2021/11/19 23:15:37;;;;;;;;;;;1.80;99.90;;;;;;8405885;28;19908;-65
2021/11/19 23:19:38;;;;;;;;;;;1.90;99.90;;;;;;8430518;28;19908;-66
2021/11/19 23:23:39;;;;;;;;;;;2.00;99.90;;;;;;8430122;28;20290;-66
2021/11/19 23:27:40;;;;;;;;;;;2.10;99.90;;;;;;8430588;28;20224;-66
2021/11/19 23:31:46;;;;;;;;;;;2.10;99.90;;;;;;8430470;28;20290;-66
2021/11/19 23:35:49;;;;;;;;;;;2.30;99.90;;;;;;8412203;28;19908;-66
2021/11/19 23:39:50;;;;;;;;;;;2.30;99.90;;;;;;8428077;28;20006;-66
2021/11/19 23:43:51;;;;;;;;;;;2.30;99.90;;;;;;8429723;28;19957;-66
2021/11/19 23:47:52;;;;;;;;;;;2.10;99.90;;;;;;8429849;28;19908;-66
2021/11/19 23:51:53;;;;;;;;;;;2.00;99.90;;;;;;8429490;28;19943;-66
2021/11/19 23:55:55;;;;;;;;;;;2.20;99.90;;;;;;8426159;28;20378;-65
2021/11/19 23:59:56;;;;;;;;;;;2.50;99.90;;;;;;8428985;28;19999;-65
